Terminal Aerodrome Forecast
Issued by NWS Tampa Bay Area, FL

Home | Current Version | Previous Version | Text Only | Print | Product List | Glossary On
Versions: 1 2 3 4 5 6 7 8 9 10 11 12 13
000
FTUS42 KTBW 232339
TAFSRQ
TAF
KSRQ 232339Z 2400/2424 27006KT P6SM FEW050 SCT250
     FM240200 VRB03KT P6SM SCT040 SCT250
      TEMPO 2402/2406 BKN040
     FM241400 15006KT P6SM SCT030 SCT100 BKN250
     FM241700 24008KT P6SM VCTS SCT040CB BKN080
     FM242000 27010KT P6SM SCT050 SCT100 BKN250=

USA.gov is the U.S. government's official web portal to all federal, state and local government web resources and services.